Unlu-5 — TCON5 — position and weather

sailwx.info

Track history (hours):
 
Tides and Currents Weather Stations Pressure Air Temp Water Temp Dewpoint Dewpoint Depression Visibility Wind Speed Wind Dir Waves Ship Positions

Unlu-5

Last reported at 2018-Feb-20 23:55 UTC. Time now 2018-Feb-22 11:14 UTC.
Position N 36°34' E 014°03'.

Length 99 m; draft 6.5 m.

Type: Ship. MMSI: 271000854.

Date/timePositionNaut miles runAvg speedWind from/ knotsBaromVisibWave heightAir tempDewpointWater temp
2018-Feb-20 23:55N 36°34' E 014°03'4 7.0
2018-Feb-20 23:19N 36°31' E 014°06'2 7.2
2018-Feb-20 22:59N 36°29' E 014°08'4 7.3
2018-Feb-20 22:30N 36°26' E 014°10'4 7.2
2018-Feb-20 22:00N 36°23' E 014°12'4 7.5
2018-Feb-20 21:30N 36°20' E 014°15'4 7.6
2018-Feb-20 21:00N 36°17' E 014°18'4 7.6
2018-Feb-20 20:30N 36°14' E 014°21'4 7.3
2018-Feb-20 20:00N 36°11' E 014°24'4 7.4
2018-Feb-20 19:30N 36°09' E 014°28'4 7.3
2018-Feb-20 19:00N 36°06' E 014°31'4 7.3
2018-Feb-20 18:30N 36°03' E 014°34'4 7.3
2018-Feb-20 18:00N 36°01' E 014°37'4 7.3
2018-Feb-20 17:29N 35°59' E 014°41'4 7.4
2018-Feb-20 17:00N 35°57' E 014°45'5 0.9
2018-Feb-20 11:17N 35°55' E 014°50'  
2018-Feb-17 14:24N 37°52' E 024°08'3 8.4
2018-Feb-17 13:59N 37°55' E 024°08'9 8.5
2018-Feb-17 12:57N 38°04' E 024°08'4 8.6
2018-Feb-17 12:30N 38°08' E 024°08'4 0.1
2018-Feb-15 19:09N 38°11' E 024°07'1 5.9
2018-Feb-15 18:57N 38°10' E 024°07'3 7.1
2018-Feb-15 18:30N 38°07' E 024°06'4 8.1
2018-Feb-15 18:00N 38°03' E 024°06'26 7.7
2018-Feb-15 14:39N 37°38' E 024°00'3 8.0
2018-Feb-15 14:17N 37°38' E 023°57'3 8.1
2018-Feb-15 13:56N 37°38' E 023°53'3 8.2
2018-Feb-15 13:30N 37°39' E 023°49'4 7.9
2018-Feb-15 13:00N 37°39' E 023°44'4 7.1
2018-Feb-15 12:30N 37°42' E 023°41'4 7.8
2018-Feb-15 12:00N 37°45' E 023°39'4 7.5
2018-Feb-15 11:30N 37°48' E 023°35'4 8.4
2018-Feb-15 11:00N 37°50' E 023°30'4 8.8
2018-Feb-15 10:30N 37°51' E 023°25'4 8.8
2018-Feb-15 10:00N 37°51' E 023°20'4 8.7
2018-Feb-15 09:30N 37°52' E 023°14'4 8.8
2018-Feb-15 09:00N 37°53' E 023°09'4 8.5
2018-Feb-15 08:30N 37°54' E 023°03'3 5.9
2018-Feb-15 08:00N 37°55' E 023°00'2 3.9
2018-Feb-15 07:30N 37°57' E 022°58'1 2.9
2018-Feb-15 07:00N 37°58' E 022°57'1 1.0
2018-Feb-15 06:30N 37°58' E 022°56'1 2.4
2018-Feb-15 06:00N 37°58' E 022°55'0 0.8
2018-Feb-15 05:31N 37°58' E 022°55'0 0.6
2018-Feb-15 05:00N 37°58' E 022°55'4 7.4
2018-Feb-15 04:30N 38°00' E 022°51'4 7.8
2018-Feb-15 04:00N 38°03' E 022°47'4 7.8
2018-Feb-15 03:28N 38°06' E 022°44'4 7.5
2018-Feb-15 02:59N 38°08' E 022°40'4 7.5
2018-Feb-15 02:31N 38°09' E 022°36'  
2018-Feb-11 03:53N 44°30' E 012°26'  
Track history (hours):
 
Tides and Currents Weather Stations Pressure Air Temp Water Temp Dewpoint Dewpoint Depression Visibility Wind Speed Wind Dir Waves Ship Positions

Unlu-5

Last reported at 2018-Feb-20 23:55 UTC. Time now 2018-Feb-22 11:14 UTC.
Position N 36°34' E 014°03'.

Length 99 m; draft 6.5 m.

Type: Ship. MMSI: 271000854.

Date/timePositionNaut miles runAvg speedWind from/ knotsBaromVisibWave heightAir tempDewpointWater temp
2018-Feb-20 23:55N 36°34' E 014°03'4 7.0
2018-Feb-20 23:19N 36°31' E 014°06'2 7.2
2018-Feb-20 22:59N 36°29' E 014°08'4 7.3
2018-Feb-20 22:30N 36°26' E 014°10'4 7.2
2018-Feb-20 22:00N 36°23' E 014°12'4 7.5
2018-Feb-20 21:30N 36°20' E 014°15'4 7.6
2018-Feb-20 21:00N 36°17' E 014°18'4 7.6
2018-Feb-20 20:30N 36°14' E 014°21'4 7.3
2018-Feb-20 20:00N 36°11' E 014°24'4 7.4
2018-Feb-20 19:30N 36°09' E 014°28'4 7.3
2018-Feb-20 19:00N 36°06' E 014°31'4 7.3
2018-Feb-20 18:30N 36°03' E 014°34'4 7.3
2018-Feb-20 18:00N 36°01' E 014°37'4 7.3
2018-Feb-20 17:29N 35°59' E 014°41'4 7.4
2018-Feb-20 17:00N 35°57' E 014°45'5 0.9
2018-Feb-20 11:17N 35°55' E 014°50'  
2018-Feb-17 14:24N 37°52' E 024°08'3 8.4
2018-Feb-17 13:59N 37°55' E 024°08'9 8.5
2018-Feb-17 12:57N 38°04' E 024°08'4 8.6
2018-Feb-17 12:30N 38°08' E 024°08'4 0.1
2018-Feb-15 19:09N 38°11' E 024°07'1 5.9
2018-Feb-15 18:57N 38°10' E 024°07'3 7.1
2018-Feb-15 18:30N 38°07' E 024°06'4 8.1
2018-Feb-15 18:00N 38°03' E 024°06'26 7.7
2018-Feb-15 14:39N 37°38' E 024°00'3 8.0
2018-Feb-15 14:17N 37°38' E 023°57'3 8.1
2018-Feb-15 13:56N 37°38' E 023°53'3 8.2
2018-Feb-15 13:30N 37°39' E 023°49'4 7.9
2018-Feb-15 13:00N 37°39' E 023°44'4 7.1
2018-Feb-15 12:30N 37°42' E 023°41'4 7.8
2018-Feb-15 12:00N 37°45' E 023°39'4 7.5
2018-Feb-15 11:30N 37°48' E 023°35'4 8.4
2018-Feb-15 11:00N 37°50' E 023°30'4 8.8
2018-Feb-15 10:30N 37°51' E 023°25'4 8.8
2018-Feb-15 10:00N 37°51' E 023°20'4 8.7
2018-Feb-15 09:30N 37°52' E 023°14'4 8.8
2018-Feb-15 09:00N 37°53' E 023°09'4 8.5
2018-Feb-15 08:30N 37°54' E 023°03'3 5.9
2018-Feb-15 08:00N 37°55' E 023°00'2 3.9
2018-Feb-15 07:30N 37°57' E 022°58'1 2.9
2018-Feb-15 07:00N 37°58' E 022°57'1 1.0
2018-Feb-15 06:30N 37°58' E 022°56'1 2.4
2018-Feb-15 06:00N 37°58' E 022°55'0 0.8
2018-Feb-15 05:31N 37°58' E 022°55'0 0.6
2018-Feb-15 05:00N 37°58' E 022°55'4 7.4
2018-Feb-15 04:30N 38°00' E 022°51'4 7.8
2018-Feb-15 04:00N 38°03' E 022°47'4 7.8
2018-Feb-15 03:28N 38°06' E 022°44'4 7.5
2018-Feb-15 02:59N 38°08' E 022°40'4 7.5
2018-Feb-15 02:31N 38°09' E 022°36'  
2018-Feb-11 03:53N 44°30' E 012°26'  

Dump ship's entire track history